Time;durP1;ratioP1;P1;durP2;ratioP2;P2;SDS_P1;SDS_P2;PMS_P1;PMS_P2;Temp;Humidity;BMP_temperature;BMP_pressure;BME280_temperature;BME280_humidity;BME280_pressure;Samples;Min_cycle;Max_cycle;Signal;HPM_P1;HPM_P2
2023/03/20 00:00:25;;;;;;;0.65;0.45;;;;;;;3.28;72.72;101262.13;4983015;28;20388;-73
2023/03/20 00:02:51;;;;;;;1.23;0.50;;;;;;;3.28;72.86;101259.56;4984543;28;20096;-73
2023/03/20 00:05:21;;;;;;;0.80;0.40;;;;;;;3.28;72.72;101256.97;4978830;28;20169;-73
2023/03/20 00:07:49;;;;;;;1.27;0.30;;;;;;;3.28;73.38;101256.97;4983890;28;20121;-73
2023/03/20 00:10:19;;;;;;;1.65;0.50;;;;;;;3.27;73.38;101249.19;4980010;28;20054;-72
2023/03/20 00:12:48;;;;;;;1.45;0.50;;;;;;;3.26;73.42;101243.16;4988424;28;20721;-73
2023/03/20 00:15:27;;;;;;;1.20;0.50;;;;;;;3.26;72.98;101237.13;4980522;28;20391;-73
2023/03/20 00:17:55;;;;;;;1.02;0.50;;;;;;;3.25;73.20;101227.66;4986688;28;20051;-72
2023/03/20 00:20:22;;;;;;;1.17;0.40;;;;;;;3.26;73.40;101238.00;4985849;28;20050;-72
2023/03/20 00:22:49;;;;;;;1.10;0.55;;;;;;;3.26;73.19;101237.13;4983498;28;20054;-72
2023/03/20 00:25:20;;;;;;;2.65;0.40;;;;;;;3.27;73.23;101246.59;4986545;28;20530;-72
2023/03/20 00:27:47;;;;;;;1.40;0.60;;;;;;;3.27;73.00;101233.69;4976265;28;20142;-72
2023/03/20 00:30:24;;;;;;;1.20;0.50;;;;;;;3.29;73.38;101226.84;4988921;28;20046;-73
2023/03/20 00:32:52;;;;;;;1.45;0.50;;;;;;;3.26;73.37;101222.50;4980403;28;20054;-73
2023/03/20 00:35:22;;;;;;;1.52;0.90;;;;;;;3.28;73.05;101223.41;4985905;28;20566;-73
2023/03/20 00:37:50;;;;;;;2.90;0.50;;;;;;;3.30;73.29;101228.59;4987684;28;20046;-73
2023/03/20 00:40:18;;;;;;;3.53;0.90;;;;;;;3.30;73.25;101228.59;4990482;28;20065;-72
2023/03/20 00:42:48;;;;;;;2.95;0.50;;;;;;;3.30;73.43;101216.56;4985927;28;20054;-72
2023/03/20 00:45:19;;;;;;;2.25;0.68;;;;;;;3.30;73.22;101210.50;4983034;28;20049;-73
2023/03/20 00:47:47;;;;;;;2.97;0.98;;;;;;;3.31;73.67;101205.38;4987907;28;20046;-72
2023/03/20 00:50:20;;;;;;;0.93;0.55;;;;;;;3.31;73.69;101205.38;4987865;28;20043;-72
2023/03/20 00:52:48;;;;;;;2.47;0.65;;;;;;;3.32;73.31;101207.13;4984808;28;20402;-73
2023/03/20 00:55:15;;;;;;;2.65;0.88;;;;;;;3.29;73.35;101201.03;4989714;28;20053;-72
2023/03/20 00:57:49;;;;;;;3.65;1.13;;;;;;;3.33;73.70;101203.72;4984107;28;20047;-73
2023/03/20 01:00:34;;;;;;;2.63;0.73;;;;;;;3.35;73.60;101201.13;4988724;28;20046;-73
2023/03/20 01:03:06;;;;;;;1.98;0.57;;;;;;;3.35;73.34;101190.81;4985455;28;20050;-73
2023/03/20 01:05:33;;;;;;;2.85;0.80;;;;;;;3.34;73.61;101187.38;4985657;28;20802;-72
2023/03/20 01:08:00;;;;;;;1.27;0.65;;;;;;;3.34;74.02;101184.78;4988733;28;20058;-73
2023/03/20 01:10:30;;;;;;;2.05;0.85;;;;;;;3.31;73.60;101176.13;4982956;28;20438;-73
2023/03/20 01:13:02;;;;;;;3.17;0.90;;;;;;;3.35;73.76;101171.00;4989888;28;20054;-73
2023/03/20 01:15:32;;;;;;;2.17;1.08;;;;;;;3.36;73.39;101165.03;4990846;28;20072;-72
2023/03/20 01:17:59;;;;;;;3.00;0.88;;;;;;;3.35;73.35;101142.63;4988464;28;20057;-73
2023/03/20 01:20:28;;;;;;;1.10;0.57;;;;;;;3.38;73.38;101141.78;4986296;28;20050;-72
2023/03/20 01:22:55;;;;;;;1.50;0.73;;;;;;;3.36;73.75;101140.94;4990774;28;20413;-72
2023/03/20 01:25:23;;;;;;;2.92;0.88;;;;;;;3.37;73.76;101140.94;4986421;28;20046;-73
2023/03/20 01:27:52;;;;;;;0.88;0.60;;;;;;;3.37;73.87;101130.59;4990711;28;20062;-72
2023/03/20 01:30:24;;;;;;;1.10;0.60;;;;;;;3.39;73.71;101125.47;4989104;28;20053;-73
2023/03/20 01:32:51;;;;;;;3.95;0.70;;;;;;;3.40;73.63;101129.78;4990899;28;20046;-73
2023/03/20 01:35:20;;;;;;;5.20;0.60;;;;;;;3.40;73.73;101127.22;4991100;28;20055;-73
2023/03/20 01:37:48;;;;;;;3.33;0.60;;;;;;;3.41;73.81;101117.75;4988512;28;20629;-72
2023/03/20 01:40:30;;;;;;;4.88;0.75;;;;;;;3.42;73.55;101104.00;4991512;28;20062;-73
2023/03/20 01:42:58;;;;;;;3.08;0.73;;;;;;;3.43;73.80;101110.91;4988888;28;20439;-72
2023/03/20 01:45:31;;;;;;;2.83;0.80;;;;;;;3.41;74.07;101099.66;4986154;28;20680;-72
2023/03/20 01:47:58;;;;;;;1.23;0.90;;;;;;;3.43;73.79;101105.72;4988332;28;20054;-73
2023/03/20 01:50:29;;;;;;;0.70;0.57;;;;;;;3.43;73.97;101109.19;4988460;28;20108;-73
2023/03/20 01:53:08;;;;;;;1.85;0.50;;;;;;;3.43;74.13;101101.44;4989805;28;20438;-73
2023/03/20 01:55:37;;;;;;;1.75;0.68;;;;;;;3.44;73.85;101103.16;4987843;28;20381;-73
2023/03/20 01:58:07;;;;;;;1.15;0.57;;;;;;;3.44;73.94;101092.81;4989502;28;20118;-72
2023/03/20 02:00:36;;;;;;;1.67;0.70;;;;;;;3.45;74.18;101093.72;4985871;28;20513;-72
2023/03/20 02:03:06;;;;;;;1.27;0.70;;;;;;;3.45;73.44;101089.41;4989546;28;20046;-72
2023/03/20 02:05:34;;;;;;;1.45;0.73;;;;;;;3.46;74.15;101083.41;4987582;28;20061;-73
2023/03/20 02:08:10;;;;;;;4.15;0.70;;;;;;;3.46;73.88;101079.94;4986277;28;20047;-73
2023/03/20 02:10:37;;;;;;;0.93;0.52;;;;;;;3.46;73.84;101070.47;4986015;28;20052;-73
2023/03/20 02:13:05;;;;;;;1.00;0.52;;;;;;;3.47;73.56;101084.25;4981647;28;20046;-73
2023/03/20 02:15:32;;;;;;;5.28;0.77;;;;;;;3.48;74.02;101083.44;4991540;28;20054;-73
2023/03/20 02:18:01;;;;;;;1.35;0.65;;;;;;;3.48;73.62;101080.84;4985760;28;20046;-72
2023/03/20 02:20:42;;;;;;;1.17;0.50;;;;;;;3.48;74.00;101084.31;4987018;28;20057;-73
2023/03/20 02:23:55;;;;;;;3.55;0.70;;;;;;;3.49;73.56;101077.41;4986977;28;20396;-73
2023/03/20 02:26:36;;;;;;;2.35;0.40;;;;;;;3.49;73.94;101080.84;4986798;28;20066;-72
2023/03/20 02:29:41;;;;;;;1.52;0.50;;;;;;;3.46;73.58;101065.31;4989563;28;20054;-73
2023/03/20 02:32:44;;;;;;;1.50;0.70;;;;;;;3.50;74.09;101068.81;4971419;28;20050;-72
2023/03/20 02:35:38;;;;;;;3.83;1.10;;;;;;;3.50;73.88;101061.06;4988047;28;20066;-73
2023/03/20 02:38:18;;;;;;;1.20;0.60;;;;;;;3.50;74.03;101049.03;4989385;28;20069;-73
2023/03/20 02:40:53;;;;;;;1.15;0.50;;;;;;;3.50;73.89;101036.13;4987554;28;20053;-72
2023/03/20 02:43:22;;;;;;;;;;;;;;;3.51;73.92;101042.16;4987602;28;20133;-72
2023/03/20 02:45:55;;;;;;;3.25;0.88;;;;;;;3.51;73.83;101032.69;4986897;28;19921;-73
2023/03/20 02:48:33;;;;;;;2.90;0.60;;;;;;;3.47;74.06;101023.19;4986149;28;20050;-73
2023/03/20 02:51:04;;;;;;;2.03;0.65;;;;;;;3.49;74.27;101026.63;4988679;28;20049;-73
2023/03/20 02:53:43;;;;;;;2.85;0.60;;;;;;;3.54;73.78;101037.03;4987664;28;20105;-73
2023/03/20 02:56:16;;;;;;;3.38;0.55;;;;;;;3.54;73.84;101030.16;4986127;28;20046;-73
2023/03/20 02:58:50;;;;;;;2.20;0.82;;;;;;;3.55;74.27;101015.50;4989172;28;20078;-72
2023/03/20 03:01:23;;;;;;;1.60;0.75;;;;;;;3.55;74.33;101018.97;4989261;28;20050;-73
2023/03/20 03:03:56;;;;;;;6.78;0.57;;;;;;;3.56;74.32;101014.69;4988630;28;20426;-72
2023/03/20 03:06:28;;;;;;;1.27;0.50;;;;;;;3.56;73.82;101004.34;4983084;28;20521;-72
2023/03/20 03:09:01;;;;;;;1.08;0.60;;;;;;;3.57;74.18;101001.78;4983939;28;20074;-72
2023/03/20 03:11:28;;;;;;;3.45;0.73;;;;;;;3.57;74.03;101004.34;4986871;28;20061;-72
2023/03/20 03:13:57;;;;;;;5.85;1.10;;;;;;;3.59;74.04;101009.56;4983866;28;20038;-73
2023/03/20 03:16:29;;;;;;;4.15;0.60;;;;;;;3.60;74.54;101011.28;4981959;28;20066;-72
2023/03/20 03:19:07;;;;;;;2.85;0.70;;;;;;;3.60;74.00;101003.53;4985470;28;20510;-73
2023/03/20 03:21:37;;;;;;;1.35;0.77;;;;;;;3.57;73.88;100990.59;4983208;28;20052;-72
2023/03/20 03:24:06;;;;;;;4.35;0.93;;;;;;;3.59;74.29;100986.31;4982654;28;20046;-72
2023/03/20 03:26:39;;;;;;;3.40;1.50;;;;;;;3.62;74.43;100981.19;4982854;28;20899;-73
2023/03/20 03:29:14;;;;;;;2.45;0.85;;;;;;;3.62;73.96;100983.75;4979720;28;20066;-72
2023/03/20 03:31:42;;;;;;;2.15;1.08;;;;;;;3.63;74.08;100970.00;4982979;28;20047;-73
2023/03/20 03:34:13;;;;;;;4.35;1.02;;;;;;;3.61;74.36;100976.84;4983916;28;20120;-73
2023/03/20 03:36:50;;;;;;;2.47;1.15;;;;;;;3.62;74.30;100968.28;4988543;28;20046;-73
2023/03/20 03:39:30;;;;;;;2.33;1.40;;;;;;;3.63;74.32;100970.00;4987241;28;20050;-73
2023/03/20 03:42:04;;;;;;;2.08;1.05;;;;;;;3.63;74.48;100959.66;4987120;28;20050;-73
2023/03/20 03:44:38;;;;;;;4.95;1.15;;;;;;;3.64;74.50;100971.72;4987132;28;20057;-72
2023/03/20 03:47:08;;;;;;;6.30;1.10;;;;;;;3.65;74.54;100962.28;4988107;28;20049;-72
2023/03/20 03:49:39;;;;;;;2.45;1.02;;;;;;;3.63;74.53;100962.25;4985754;28;20050;-72
2023/03/20 03:52:10;;;;;;;4.30;1.35;;;;;;;3.67;74.56;100961.44;4988083;28;20047;-73
2023/03/20 03:54:43;;;;;;;2.85;1.50;;;;;;;3.67;74.70;100951.13;4987442;28;20172;-73
2023/03/20 03:57:12;;;;;;;4.25;1.17;;;;;;;3.67;74.70;100927.88;4986596;28;20047;-71
2023/03/20 03:59:43;;;;;;;2.53;1.17;;;;;;;3.66;74.26;100917.50;4989178;28;20137;-73
2023/03/20 04:02:10;;;;;;;4.80;1.17;;;;;;;3.68;74.91;100914.09;4988455;28;20046;-74
2023/03/20 04:04:43;;;;;;;4.20;1.60;;;;;;;3.68;74.94;100905.47;4988170;28;20049;-74
2023/03/20 04:07:11;;;;;;;6.22;1.83;;;;;;;3.68;74.45;100905.47;4987906;28;20050;-74
2023/03/20 04:09:39;;;;;;;4.43;1.30;;;;;;;3.70;74.94;100899.47;4985997;28;20054;-74
2023/03/20 04:12:06;;;;;;;4.15;1.02;;;;;;;3.71;74.58;100921.88;4986994;28;20049;-74
2023/03/20 04:14:33;;;;;;;1.60;0.80;;;;;;;3.71;74.79;100929.63;4983571;28;20050;-74
2023/03/20 04:17:00;;;;;;;2.05;0.98;;;;;;;3.71;75.04;100921.00;4986857;28;20054;-73
2023/03/20 04:19:27;;;;;;;1.67;1.08;;;;;;;3.73;74.60;100917.59;4987013;28;20438;-74
2023/03/20 04:21:54;;;;;;;3.28;0.80;;;;;;;3.74;75.01;100902.97;4988060;28;20046;-74
2023/03/20 04:24:22;;;;;;;2.15;0.60;;;;;;;3.74;75.01;100893.50;4987817;28;20110;-74
2023/03/20 04:26:50;;;;;;;1.45;0.50;;;;;;;3.76;75.00;100894.38;4983541;28;20052;-74
2023/03/20 04:29:17;;;;;;;0.90;0.40;;;;;;;3.77;75.07;100897.81;4985225;28;20535;-73
2023/03/20 04:31:43;;;;;;;2.22;0.60;;;;;;;3.77;74.90;100885.78;4983187;28;20042;-76
2023/03/20 04:34:11;;;;;;;0.70;0.43;;;;;;;3.79;75.06;100878.91;4985904;28;20053;-74
2023/03/20 04:36:37;;;;;;;0.50;0.38;;;;;;;3.80;75.02;100880.63;4987093;28;20495;-74
2023/03/20 04:39:04;;;;;;;0.90;0.40;;;;;;;3.81;74.75;100879.81;4983706;28;20049;-74
2023/03/20 04:41:31;;;;;;;0.75;0.50;;;;;;;3.82;74.87;100873.78;4987021;28;20049;-74
2023/03/20 04:44:00;;;;;;;0.52;0.38;;;;;;;3.84;74.74;100876.34;4983166;28;20486;-74
2023/03/20 04:46:26;;;;;;;2.28;0.60;;;;;;;3.84;74.73;100878.94;4986704;28;20056;-74
2023/03/20 04:48:53;;;;;;;0.82;0.40;;;;;;;3.85;75.12;100878.09;4983403;28;20046;-74
2023/03/20 04:51:20;;;;;;;1.08;0.40;;;;;;;3.86;74.97;100871.22;4987330;28;20050;-74
2023/03/20 04:53:47;;;;;;;0.80;0.40;;;;;;;3.87;74.86;100867.78;4985671;28;20580;-74
2023/03/20 04:56:14;;;;;;;0.70;0.40;;;;;;;3.88;75.23;100869.53;4988251;28;20051;-74
2023/03/20 04:58:41;;;;;;;1.42;0.30;;;;;;;3.88;74.95;100869.53;4984984;28;20759;-74
2023/03/20 05:01:10;;;;;;;0.70;0.40;;;;;;;3.89;75.06;100853.16;4987928;28;20046;-74
2023/03/20 05:03:37;;;;;;;0.57;0.40;;;;;;;3.90;74.96;100854.88;4985003;28;20046;-74
2023/03/20 05:06:05;;;;;;;0.40;0.32;;;;;;;3.91;75.23;100854.06;4987679;28;20043;-74
2023/03/20 05:08:32;;;;;;;0.35;0.30;;;;;;;3.91;74.94;100852.31;4985352;28;20050;-73
2023/03/20 05:10:58;;;;;;;0.50;0.40;;;;;;;3.92;75.04;100854.03;4985976;28;20499;-74
2023/03/20 05:13:25;;;;;;;0.35;0.30;;;;;;;3.93;74.78;100844.59;4986168;28;20113;-74
2023/03/20 05:15:52;;;;;;;0.85;0.45;;;;;;;3.95;74.95;100848.03;4973787;28;20054;-74
2023/03/20 05:18:20;;;;;;;0.43;0.30;;;;;;;3.96;75.17;100854.97;4975868;28;20050;-74
2023/03/20 05:20:50;;;;;;;0.50;0.30;;;;;;;3.95;74.93;100845.47;4987127;28;20045;-75
2023/03/20 05:23:16;;;;;;;0.70;0.38;;;;;;;3.98;75.17;100853.25;4987026;28;20050;-74
2023/03/20 05:25:44;;;;;;;0.73;0.43;;;;;;;3.98;75.19;100848.06;4988250;28;20073;-74
2023/03/20 05:28:11;;;;;;;0.50;0.30;;;;;;;3.98;75.16;100845.50;4985035;28;20149;-74
2023/03/20 05:30:38;;;;;;;1.45;0.63;;;;;;;3.99;75.20;100842.06;4986112;28;20395;-75
2023/03/20 05:33:05;;;;;;;0.60;0.50;;;;;;;4.01;75.05;100835.19;4989895;28;20134;-74
2023/03/20 05:35:33;;;;;;;0.70;0.40;;;;;;;4.02;75.00;100829.19;4984412;28;20062;-74
2023/03/20 05:38:00;;;;;;;0.70;0.40;;;;;;;4.00;75.11;100825.69;4981781;28;20495;-74
2023/03/20 05:40:27;;;;;;;0.50;0.40;;;;;;;4.03;75.18;100830.91;4987212;28;20054;-74
2023/03/20 05:42:53;;;;;;;0.60;0.40;;;;;;;4.03;75.31;100824.00;4987999;28;20054;-74
2023/03/20 05:45:20;;;;;;;0.88;0.40;;;;;;;4.05;75.26;100824.03;4984374;28;20050;-74
2023/03/20 05:47:47;;;;;;;0.80;0.43;;;;;;;4.05;75.12;100814.56;4986559;28;20050;-74
2023/03/20 05:50:14;;;;;;;1.40;0.40;;;;;;;4.05;75.18;100803.34;4985337;28;20515;-74
2023/03/20 05:52:42;;;;;;;1.40;0.50;;;;;;;4.06;75.37;100805.06;4988939;28;20058;-74
2023/03/20 05:55:09;;;;;;;2.22;0.95;;;;;;;4.08;75.44;100803.38;4981322;28;20042;-74
2023/03/20 05:57:36;;;;;;;2.15;0.80;;;;;;;4.10;75.24;100811.13;4989096;28;20043;-73
2023/03/20 06:00:04;;;;;;;1.00;0.60;;;;;;;4.12;75.17;100819.78;4985969;28;20490;-73
2023/03/20 06:02:31;;;;;;;1.88;1.00;;;;;;;4.12;75.23;100814.59;4984077;28;20061;-73
2023/03/20 06:04:58;;;;;;;1.65;0.70;;;;;;;4.14;75.27;100816.34;4986164;28;20050;-74
2023/03/20 06:07:25;;;;;;;0.95;0.60;;;;;;;4.15;75.48;100818.06;4990667;28;20058;-74
2023/03/20 06:09:53;;;;;;;4.30;0.75;;;;;;;4.17;75.64;100823.28;4979684;28;20055;-73
2023/03/20 06:12:20;;;;;;;1.80;0.88;;;;;;;4.18;75.52;100825.84;4986210;28;20058;-74
2023/03/20 06:14:47;;;;;;;2.17;0.70;;;;;;;4.20;75.24;100823.28;4989407;28;20050;-74
2023/03/20 06:17:14;;;;;;;2.28;1.05;;;;;;;4.21;75.36;100819.84;4986514;28;20066;-74
2023/03/20 06:19:41;;;;;;;2.95;1.20;;;;;;;4.21;75.65;100809.50;4989304;28;20042;-74
2023/03/20 06:22:07;;;;;;;2.55;1.30;;;;;;;4.23;75.51;100806.06;4985699;28;20057;-74
2023/03/20 06:24:34;;;;;;;4.10;1.08;;;;;;;4.23;75.71;100798.31;4983701;28;20058;-74
2023/03/20 06:27:03;;;;;;;4.30;1.27;;;;;;;4.25;75.45;100808.69;4983338;28;20082;-74
2023/03/20 06:29:30;;;;;;;4.30;2.03;;;;;;;4.26;75.80;100813.84;4980575;28;20550;-74
2023/03/20 06:31:56;;;;;;;5.25;2.53;;;;;;;4.26;75.65;100808.69;4985237;28;20045;-75
2023/03/20 06:34:23;;;;;;;4.70;2.55;;;;;;;4.29;75.89;100808.69;4981514;28;20051;-74
2023/03/20 06:36:50;;;;;;;5.95;2.67;;;;;;;4.29;75.79;100798.34;4989581;28;20422;-74
2023/03/20 06:39:17;;;;;;;8.35;2.90;;;;;;;4.32;75.83;100804.41;4984340;28;20074;-74
2023/03/20 06:41:44;;;;;;;5.25;2.90;;;;;;;4.34;75.87;100810.47;4987441;28;20057;-74
2023/03/20 06:44:12;;;;;;;5.00;2.45;;;;;;;4.34;75.91;100815.66;4980023;28;20053;-74
2023/03/20 06:46:39;;;;;;;4.68;1.98;;;;;;;4.33;76.03;100801.84;4986085;28;20051;-74
2023/03/20 06:49:06;;;;;;;5.30;2.65;;;;;;;4.36;75.93;100804.47;4985690;28;20042;-74
2023/03/20 06:51:33;;;;;;;8.55;3.15;;;;;;;4.38;75.94;100807.03;4983128;28;20054;-74
2023/03/20 06:54:00;;;;;;;7.07;2.63;;;;;;;4.39;76.40;100801.03;4985530;28;20043;-74
2023/03/20 06:56:27;;;;;;;6.57;3.20;;;;;;;4.40;75.76;100792.41;4982457;28;20057;-74
2023/03/20 06:58:53;;;;;;;7.13;3.92;;;;;;;4.42;76.19;100791.56;4985192;28;20408;-74
2023/03/20 07:01:22;;;;;;;6.78;3.45;;;;;;;4.45;76.03;100791.59;4986051;28;20545;-74
2023/03/20 07:03:49;;;;;;;7.57;3.25;;;;;;;4.48;76.18;100788.16;4988278;28;20077;-74
2023/03/20 07:06:17;;;;;;;10.55;4.38;;;;;;;4.45;76.27;100793.31;4978669;28;20061;-75
2023/03/20 07:08:44;;;;;;;9.40;4.25;;;;;;;4.50;76.22;100795.06;4988691;28;20689;-75
2023/03/20 07:11:11;;;;;;;10.02;5.20;;;;;;;4.53;76.18;100790.78;4982024;28;20054;-74
2023/03/20 07:13:38;;;;;;;15.07;7.35;;;;;;;4.54;76.32;100783.03;4988487;28;20073;-73
2023/03/20 07:16:06;;;;;;;9.57;4.68;;;;;;;4.57;76.37;100780.44;4984952;28;20045;-73
2023/03/20 07:18:34;;;;;;;10.68;4.60;;;;;;;4.59;76.64;100772.72;4988922;28;20049;-73
2023/03/20 07:21:04;;;;;;;13.35;4.82;;;;;;;4.61;76.62;100776.16;4983045;28;20384;-72
2023/03/20 07:23:33;;;;;;;11.25;4.90;;;;;;;4.64;76.54;100771.00;4982785;28;20054;-73
2023/03/20 07:26:00;;;;;;;13.48;5.18;;;;;;;4.67;76.79;100771.03;4982812;28;20573;-73
2023/03/20 07:28:27;;;;;;;11.30;5.47;;;;;;;4.67;76.50;100764.13;4983895;28;20054;-73
2023/03/20 07:30:54;;;;;;;13.50;5.55;;;;;;;4.73;76.89;100774.50;4985848;28;20491;-73
2023/03/20 07:33:21;;;;;;;12.05;4.93;;;;;;;4.76;76.86;100772.81;4984650;28;20042;-73
2023/03/20 07:35:52;;;;;;;10.00;4.70;;;;;;;4.80;76.94;100769.38;4987939;28;20065;-73
2023/03/20 07:38:19;;;;;;;14.68;5.40;;;;;;;4.82;76.82;100762.47;4981309;28;20137;-74
2023/03/20 07:40:47;;;;;;;14.57;5.57;;;;;;;4.85;76.78;100753.00;4987251;28;20066;-73
2023/03/20 07:43:14;;;;;;;13.95;4.80;;;;;;;4.88;76.74;100752.16;4987978;28;20113;-74
2023/03/20 07:45:41;;;;;;;13.48;4.90;;;;;;;4.92;77.04;100743.53;4982854;28;20050;-73
2023/03/20 07:48:08;;;;;;;10.85;5.30;;;;;;;4.95;77.03;100735.78;4985331;28;20054;-74
2023/03/20 07:50:35;;;;;;;13.43;4.78;;;;;;;4.97;77.06;100744.41;4979096;28;20499;-74
2023/03/20 07:53:03;;;;;;;15.05;4.80;;;;;;;5.00;77.23;100733.22;4984198;28;20054;-74
2023/03/20 07:55:30;;;;;;;13.73;5.63;;;;;;;5.03;77.45;100728.91;4979185;28;20062;-73
2023/03/20 07:57:57;;;;;;;16.00;5.53;;;;;;;5.07;77.48;100722.03;4987554;28;20059;-74
2023/03/20 08:00:24;;;;;;;16.00;5.03;;;;;;;5.10;77.41;100735.00;4985339;28;20054;-74
2023/03/20 08:02:50;;;;;;;17.77;6.93;;;;;;;5.14;77.50;100721.19;4980834;28;20057;-74
2023/03/20 08:05:17;;;;;;;15.90;5.65;;;;;;;5.17;77.48;100724.63;4985287;28;20057;-73
2023/03/20 08:07:45;;;;;;;22.40;5.45;;;;;;;5.17;77.59;100719.47;4982435;28;20050;-74
2023/03/20 08:10:13;;;;;;;14.95;5.35;;;;;;;5.26;77.57;100722.94;4988409;28;20105;-74
2023/03/20 08:12:40;;;;;;;15.10;4.97;;;;;;;5.30;77.66;100719.50;4984327;28;20046;-74
2023/03/20 08:15:08;;;;;;;14.70;5.90;;;;;;;5.32;77.43;100713.47;4986758;28;20065;-73
2023/03/20 08:17:35;;;;;;;14.05;4.80;;;;;;;5.37;77.51;100713.47;4981586;28;20050;-74
2023/03/20 08:20:02;;;;;;;18.30;4.97;;;;;;;5.41;77.41;100715.22;4988229;28;20773;-74
2023/03/20 08:22:29;;;;;;;15.80;6.15;;;;;;;5.46;77.51;100725.56;4982691;28;20546;-74
2023/03/20 08:24:56;;;;;;;20.00;6.47;;;;;;;5.48;77.31;100729.03;4988096;28;20133;-74
2023/03/20 08:27:24;;;;;;;16.50;6.72;;;;;;;5.53;77.47;100727.31;4985401;28;20058;-75
2023/03/20 08:29:52;;;;;;;17.85;6.97;;;;;;;5.56;77.58;100725.59;4981667;28;20050;-73
2023/03/20 08:32:19;;;;;;;14.13;6.40;;;;;;;5.60;77.68;100727.31;4981223;28;20120;-74
2023/03/20 08:34:45;;;;;;;13.82;5.78;;;;;;;5.64;77.55;100721.28;4984065;28;20053;-74
2023/03/20 08:37:12;;;;;;;16.30;6.38;;;;;;;5.69;77.63;100720.41;4982599;28;20289;-74
2023/03/20 08:39:39;;;;;;;13.43;6.03;;;;;;;5.73;77.55;100720.41;4980144;28;20046;-74
2023/03/20 08:42:07;;;;;;;19.75;6.78;;;;;;;5.79;77.68;100716.97;4983112;28;20402;-74
2023/03/20 08:44:35;;;;;;;16.10;6.45;;;;;;;5.83;77.50;100716.09;4985019;28;20050;-74
2023/03/20 08:47:02;;;;;;;19.67;7.60;;;;;;;5.88;77.75;100708.31;4982289;28;20051;-74
2023/03/20 08:49:29;;;;;;;20.42;7.45;;;;;;;5.91;77.84;100704.00;4982187;28;20474;-73
2023/03/20 08:51:56;;;;;;;20.05;6.97;;;;;;;5.95;77.71;100698.00;4985216;28;20138;-74
2023/03/20 08:54:23;;;;;;;17.35;6.47;;;;;;;5.99;77.42;100691.94;4986725;28;20047;-75
2023/03/20 08:56:49;;;;;;;20.23;7.03;;;;;;;6.02;77.64;100691.91;4984707;28;20057;-74
2023/03/20 08:59:18;;;;;;;17.15;7.93;;;;;;;6.06;77.71;100688.47;4989172;28;20046;-75
2023/03/20 09:01:46;;;;;;;20.10;8.00;;;;;;;6.11;77.70;100691.03;4984989;28;20062;-73
2023/03/20 09:04:14;;;;;;;19.65;7.93;;;;;;;6.15;77.69;100682.41;4983953;28;20057;-74
2023/03/20 09:06:41;;;;;;;17.15;6.45;;;;;;;6.19;77.51;100685.84;4984793;28;20146;-74
2023/03/20 09:09:08;;;;;;;16.23;6.53;;;;;;;6.22;77.61;100691.88;4987340;28;20141;-74
2023/03/20 09:11:35;;;;;;;16.40;6.97;;;;;;;6.25;77.67;100686.69;4986312;28;20414;-75
2023/03/20 09:14:02;;;;;;;14.77;6.05;;;;;;;6.28;77.01;100684.09;4986044;28;20058;-73
2023/03/20 09:16:29;;;;;;;15.80;6.40;;;;;;;6.29;77.20;100682.38;4988966;28;20057;-74
2023/03/20 09:18:57;;;;;;;14.68;6.00;;;;;;;6.33;76.88;100673.72;4988661;28;20140;-74
2023/03/20 09:21:24;;;;;;;16.08;5.97;;;;;;;6.35;76.92;100673.69;4990917;28;20092;-74
2023/03/20 09:23:51;;;;;;;16.70;7.00;;;;;;;6.36;77.14;100675.44;4985915;28;20050;-75
2023/03/20 09:26:18;;;;;;;13.40;6.47;;;;;;;6.36;77.28;100668.50;4987152;28;20058;-75
2023/03/20 09:28:44;;;;;;;16.05;7.05;;;;;;;6.38;77.21;100674.56;4981333;28;20058;-75
2023/03/20 09:31:12;;;;;;;18.20;7.15;;;;;;;6.41;77.28;100684.94;4986493;28;20058;-74
2023/03/20 09:33:39;;;;;;;19.30;7.25;;;;;;;6.42;77.25;100670.22;4990601;28;20439;-75
2023/03/20 09:36:10;;;;;;;21.55;7.65;;;;;;;6.45;77.28;100676.25;4984906;28;20070;-74
2023/03/20 09:38:37;;;;;;;21.67;6.90;;;;;;;6.49;77.63;100672.81;4984833;28;20070;-75
2023/03/20 09:41:06;;;;;;;18.10;7.25;;;;;;;6.51;77.44;100663.25;4988444;28;20060;-75
2023/03/20 09:43:51;;;;;;;18.08;7.32;;;;;;;6.55;77.42;100676.25;4982831;28;20498;-74
2023/03/20 09:46:36;;;;;;;14.80;6.47;;;;;;;6.59;77.11;100677.97;4984203;28;20050;-74
2023/03/20 09:49:12;;;;;;;17.92;7.05;;;;;;;6.62;77.49;100667.56;4989808;28;20047;-74
2023/03/20 09:51:45;;;;;;;21.85;7.78;;;;;;;6.65;77.50;100663.22;4984287;28;20057;-75
2023/03/20 09:54:22;;;;;;;18.67;7.35;;;;;;;6.70;77.21;100671.00;4985092;28;20050;-75
2023/03/20 09:56:50;;;;;;;18.58;7.47;;;;;;;6.73;77.28;100655.41;4982925;28;20069;-74
2023/03/20 09:59:19;;;;;;;17.15;7.47;;;;;;;6.77;77.52;100662.28;4991172;28;20046;-74
2023/03/20 10:01:50;;;;;;;16.92;7.80;;;;;;;6.76;77.56;100645.00;4980570;28;20057;-74
2023/03/20 10:04:17;;;;;;;17.33;6.82;;;;;;;6.85;77.43;100654.47;4983095;28;20050;-74
2023/03/20 10:06:47;;;;;;;16.25;6.68;;;;;;;6.86;77.54;100659.66;4987133;28;20048;-75
2023/03/20 10:09:17;;;;;;;11.57;5.57;;;;;;;6.92;77.28;100661.38;4986824;28;20056;-75
2023/03/20 10:12:22;;;;;;;15.57;7.15;;;;;;;6.96;76.83;100666.53;4988296;28;20051;-75
2023/03/20 10:14:58;;;;;;;15.02;7.38;;;;;;;6.99;76.99;100653.53;4985971;28;20411;-74
2023/03/20 10:17:39;;;;;;;19.52;8.68;;;;;;;7.04;77.27;100650.91;4984863;28;21422;-74
2023/03/20 10:20:14;;;;;;;15.90;7.82;;;;;;;7.07;77.12;100645.69;4988738;28;20050;-74
2023/03/20 10:22:47;;;;;;;17.70;7.45;;;;;;;7.12;77.12;100651.72;4983619;28;20066;-74
2023/03/20 10:25:24;;;;;;;16.13;7.47;;;;;;;7.16;77.35;100649.97;4984875;28;20050;-74
2023/03/20 10:27:56;;;;;;;15.10;7.30;;;;;;;7.20;77.42;100643.91;4988431;28;20043;-75
2023/03/20 10:30:33;;;;;;;14.48;7.00;;;;;;;7.23;77.13;100638.69;4983784;28;20771;-75
2023/03/20 10:33:12;;;;;;;13.55;6.38;;;;;;;7.27;77.31;100640.38;4986267;28;20051;-74
2023/03/20 10:35:45;;;;;;;12.77;6.13;;;;;;;7.30;77.48;100645.53;4985302;28;20053;-74
2023/03/20 10:38:24;;;;;;;14.18;6.85;;;;;;;7.35;77.20;100645.50;4989851;28;20050;-75
2023/03/20 10:40:52;;;;;;;14.98;6.97;;;;;;;7.38;76.89;100640.28;4980027;28;20093;-74
2023/03/20 10:43:23;;;;;;;11.48;5.88;;;;;;;7.42;77.25;100640.25;4983396;28;20514;-74
2023/03/20 10:45:54;;;;;;;14.35;5.72;;;;;;;7.44;77.29;100635.91;4985149;28;20053;-75
2023/03/20 10:48:25;;;;;;;11.77;5.80;;;;;;;7.49;76.98;100640.22;4981916;28;20046;-74
2023/03/20 10:50:56;;;;;;;13.75;6.55;;;;;;;7.52;77.09;100638.44;4987453;28;20133;-75
2023/03/20 10:53:41;;;;;;;16.17;6.78;;;;;;;7.58;76.64;100634.94;4983836;28;20054;-74
2023/03/20 10:56:12;;;;;;;15.18;5.78;;;;;;;7.60;76.96;100633.19;4989194;28;20609;-74
2023/03/20 10:58:41;;;;;;;11.52;6.25;;;;;;;7.62;76.92;100637.47;4980223;28;20053;-74
2023/03/20 11:01:08;;;;;;;12.02;5.25;;;;;;;7.65;76.64;100637.44;4984706;28;20050;-74
2023/03/20 11:03:38;;;;;;;13.43;6.68;;;;;;;7.66;76.57;100627.94;4978037;28;20054;-73
2023/03/20 11:06:13;;;;;;;12.45;5.95;;;;;;;7.70;76.91;100619.22;4985235;28;20042;-74
2023/03/20 11:08:46;;;;;;;10.95;5.30;;;;;;;7.74;76.72;100620.94;4979865;28;20072;-73
2023/03/20 11:11:13;;;;;;;14.02;6.82;;;;;;;7.76;76.47;100620.91;4985501;28;20443;-73
2023/03/20 11:13:42;;;;;;;14.30;6.07;;;;;;;7.79;76.50;100621.72;4985517;28;20042;-74
2023/03/20 11:16:20;;;;;;;14.23;6.60;;;;;;;7.82;76.55;100616.50;4985945;28;20051;-73
2023/03/20 11:18:48;;;;;;;12.95;6.60;;;;;;;7.84;76.75;100609.53;4982786;28;20142;-74
2023/03/20 11:21:19;;;;;;;13.18;6.47;;;;;;;7.86;76.90;100613.00;4986009;28;20133;-74
2023/03/20 11:23:47;;;;;;;13.48;6.85;;;;;;;7.89;76.74;100602.56;4984639;28;20055;-74
2023/03/20 11:26:16;;;;;;;16.33;8.25;;;;;;;7.95;76.59;100606.00;4988227;28;20141;-73
2023/03/20 11:28:48;;;;;;;14.55;6.38;;;;;;;7.98;76.45;100605.97;4979160;28;20046;-73
2023/03/20 11:31:18;;;;;;;12.70;6.30;;;;;;;8.02;76.58;100615.44;4983243;28;20050;-74
2023/03/20 11:33:50;;;;;;;13.32;6.53;;;;;;;8.05;76.84;100602.41;4985823;28;20042;-73
2023/03/20 11:36:23;;;;;;;13.10;6.47;;;;;;;8.08;76.81;100602.34;4986459;28;20055;-74
2023/03/20 11:38:53;;;;;;;13.10;6.07;;;;;;;8.11;76.62;100600.59;4983564;28;20046;-74
2023/03/20 11:41:25;;;;;;;14.65;6.57;;;;;;;8.14;76.38;100601.44;4986168;28;20869;-73
2023/03/20 11:43:52;;;;;;;12.48;6.50;;;;;;;8.16;76.42;100600.53;4982737;28;20065;-73